Time;durP1;ratioP1;P1;durP2;ratioP2;P2;SDS_P1;SDS_P2;PMS_P1;PMS_P2;Temp;Humidity;BMP_temperature;BMP_pressure;BME280_temperature;BME280_humidity;BME280_pressure;Samples;Min_cycle;Max_cycle;Signal;HPM_P1;HPM_P2
2024/01/01 00:00:53;;;;;;;39.10;28.05;;;14.40;99.90;;;;;;4593087;19;20422;-74
2024/01/01 00:02:47;;;;;;;32.85;24.80;;;14.40;99.90;;;;;;4593884;19;20010;-74
2024/01/01 00:04:21;;;;;;;35.45;27.67;;;14.40;99.90;;;;;;4593977;19;20006;-73
2024/01/01 00:05:56;;;;;;;38.35;28.25;;;14.30;99.90;;;;;;4592991;19;20018;-74
2024/01/01 00:07:30;;;;;;;38.72;29.02;;;14.40;99.90;;;;;;4594272;19;20429;-74
2024/01/01 00:09:04;;;;;;;37.33;27.65;;;14.30;99.90;;;;;;4594139;19;20017;-74
2024/01/01 00:10:40;;;;;;;37.65;27.85;;;14.30;99.90;;;;;;4593952;19;20026;-74
2024/01/01 00:12:15;;;;;;;36.38;28.80;;;14.30;99.90;;;;;;4594113;19;20002;-74
2024/01/01 00:13:48;;;;;;;38.55;29.42;;;14.30;99.90;;;;;;4592479;19;20003;-74
2024/01/01 00:15:24;;;;;;;40.30;31.42;;;14.30;99.90;;;;;;4593066;19;20007;-74
2024/01/01 00:16:58;;;;;;;39.03;30.35;;;14.30;99.90;;;;;;4594049;19;20365;-74
2024/01/01 00:18:32;;;;;;;39.88;32.03;;;14.30;99.90;;;;;;4593957;19;20429;-74
2024/01/01 00:20:07;;;;;;;40.20;32.10;;;14.30;99.90;;;;;;4592473;19;20024;-74
2024/01/01 00:21:41;;;;;;;40.92;30.85;;;14.30;99.90;;;;;;4593331;19;20009;-74
2024/01/01 00:23:16;;;;;;;39.60;29.88;;;14.30;99.90;;;;;;4593869;19;20080;-74
2024/01/01 00:24:52;;;;;;;37.60;28.35;;;14.30;99.90;;;;;;4592400;19;20006;-74
2024/01/01 00:26:26;;;;;;;35.88;27.75;;;14.30;99.90;;;;;;4591935;19;20010;-74
2024/01/01 00:28:01;;;;;;;38.33;28.92;;;14.30;99.90;;;;;;4593796;19;19999;-74
2024/01/01 00:29:36;;;;;;;40.42;28.58;;;14.40;99.90;;;;;;4591891;19;20036;-73
2024/01/01 00:31:10;;;;;;;44.08;32.58;;;14.40;99.90;;;;;;4593290;19;20162;-74
2024/01/01 00:32:44;;;;;;;39.03;30.30;;;14.40;99.90;;;;;;4593394;19;20007;-74
2024/01/01 00:34:21;;;;;;;37.35;29.30;;;14.50;99.90;;;;;;4593507;19;20426;-73
2024/01/01 00:35:56;;;;;;;44.08;30.02;;;14.50;99.90;;;;;;4592621;19;20006;-73
2024/01/01 00:37:30;;;;;;;35.63;28.52;;;14.50;99.90;;;;;;4593644;19;20496;-73
2024/01/01 00:39:06;;;;;;;35.30;27.15;;;14.50;99.90;;;;;;4593563;19;19998;-74
2024/01/01 00:40:41;;;;;;;35.42;27.05;;;14.60;99.90;;;;;;4593266;19;20028;-73
2024/01/01 00:42:15;;;;;;;38.60;27.08;;;14.60;99.90;;;;;;4593218;19;20128;-72
2024/01/01 00:43:50;;;;;;;37.63;29.02;;;14.60;99.90;;;;;;4593541;19;20002;-73
2024/01/01 00:45:24;;;;;;;40.67;30.42;;;14.70;99.90;;;;;;4592684;19;20090;-73
2024/01/01 00:46:59;;;;;;;43.42;29.15;;;14.70;99.90;;;;;;4593006;19;20012;-74
2024/01/01 00:48:34;;;;;;;46.13;32.97;;;14.70;99.90;;;;;;4593708;19;20291;-74
2024/01/01 00:50:09;;;;;;;46.45;34.83;;;14.70;99.90;;;;;;4591640;19;20006;-74
2024/01/01 00:51:43;;;;;;;54.30;37.17;;;14.70;99.90;;;;;;4592500;19;20013;-74
2024/01/01 00:53:18;;;;;;;50.17;35.03;;;14.70;99.90;;;;;;4593220;19;20006;-74
2024/01/01 00:54:53;;;;;;;41.63;31.70;;;14.70;99.90;;;;;;4591512;19;20318;-74
2024/01/01 00:56:27;;;;;;;37.22;29.52;;;14.80;99.90;;;;;;4590508;19;20481;-74
2024/01/01 00:58:06;;;;;;;39.45;28.70;;;14.80;99.90;;;;;;4592709;19;20030;-73
2024/01/01 00:59:40;;;;;;;39.80;30.23;;;14.70;99.90;;;;;;4593022;19;20047;-74
2024/01/01 01:16:55;;;;;;;36.45;28.13;;;14.80;99.90;;;;;;4577435;19;20033;-75
2024/01/01 01:18:30;;;;;;;39.45;30.08;;;14.80;99.90;;;;;;4592655;19;20070;-74
2024/01/01 01:20:05;;;;;;;39.42;29.95;;;14.80;99.90;;;;;;4592396;19;20019;-74
2024/01/01 01:21:39;;;;;;;41.55;30.13;;;14.80;99.90;;;;;;4592633;19;19998;-75
2024/01/01 01:23:14;;;;;;;36.47;28.52;;;14.80;99.90;;;;;;4591072;19;20039;-74
2024/01/01 01:24:48;;;;;;;36.40;28.55;;;14.80;99.90;;;;;;4591954;19;20070;-74
2024/01/01 01:26:22;;;;;;;38.45;28.00;;;14.80;99.90;;;;;;4591692;19;20007;-74
2024/01/01 01:27:59;;;;;;;40.00;30.13;;;14.80;99.90;;;;;;4592227;19;20036;-74
2024/01/01 01:29:32;;;;;;;36.83;28.33;;;14.80;99.90;;;;;;4592283;19;20073;-75
2024/01/01 01:31:07;;;;;;;38.83;29.38;;;14.80;99.90;;;;;;4592232;19;20014;-74
2024/01/01 01:32:43;;;;;;;36.17;28.67;;;14.70;99.90;;;;;;4591022;19;20020;-74
2024/01/01 01:34:18;;;;;;;38.60;28.35;;;14.70;99.90;;;;;;4592052;19;20029;-74
2024/01/01 01:35:54;;;;;;;37.13;28.50;;;14.70;99.90;;;;;;4592189;19;20014;-74
2024/01/01 01:37:29;;;;;;;36.85;27.58;;;14.70;99.90;;;;;;4592159;19;20069;-74
2024/01/01 01:39:04;;;;;;;36.28;27.05;;;14.70;99.90;;;;;;4591044;19;20006;-74
2024/01/01 01:40:38;;;;;;;36.85;28.00;;;14.70;99.90;;;;;;4591770;19;20002;-74
2024/01/01 01:42:14;;;;;;;36.17;28.02;;;14.70;99.90;;;;;;4592007;19;20006;-74
2024/01/01 01:43:48;;;;;;;39.05;28.83;;;14.70;99.90;;;;;;4590897;19;20418;-74
2024/01/01 01:45:23;;;;;;;37.42;29.40;;;14.70;99.90;;;;;;4590627;19;20014;-75
2024/01/01 01:46:58;;;;;;;35.63;28.75;;;14.70;99.90;;;;;;4590053;19;20014;-74
2024/01/01 01:48:32;;;;;;;35.92;28.25;;;14.70;99.90;;;;;;4591528;19;20002;-75
2024/01/01 01:50:07;;;;;;;37.75;29.23;;;14.70;99.90;;;;;;4591877;19;20078;-74
2024/01/01 01:51:44;;;;;;;38.97;29.52;;;14.70;99.90;;;;;;4591892;19;20006;-74
2024/01/01 01:53:24;;;;;;;35.03;29.05;;;14.70;99.90;;;;;;4592155;19;20007;-74
2024/01/01 01:54:59;;;;;;;37.42;28.55;;;14.70;99.90;;;;;;4590519;19;20074;-74
2024/01/01 01:56:35;;;;;;;36.45;28.45;;;14.70;99.90;;;;;;4590850;19;20074;-74
2024/01/01 01:58:10;;;;;;;35.30;26.98;;;14.70;99.90;;;;;;4590540;19;20003;-74
2024/01/01 01:59:44;;;;;;;39.22;30.92;;;14.70;99.90;;;;;;4590604;19;20021;-74
2024/01/01 02:01:20;;;;;;;37.22;27.55;;;14.70;99.90;;;;;;4591735;19;20425;-74
2024/01/01 02:02:54;;;;;;;37.78;29.73;;;14.70;99.90;;;;;;4591928;19;20005;-74
2024/01/01 02:04:28;;;;;;;36.55;28.63;;;14.70;99.90;;;;;;4591930;19;20080;-75
2024/01/01 02:06:04;;;;;;;38.28;29.02;;;14.70;99.90;;;;;;4589641;19;20003;-74
2024/01/01 02:07:38;;;;;;;35.30;27.27;;;14.70;99.90;;;;;;4591289;19;20310;-74
2024/01/01 02:09:12;;;;;;;37.38;29.33;;;14.60;99.90;;;;;;4591542;19;20364;-74
2024/01/01 02:10:47;;;;;;;37.95;28.13;;;14.60;99.90;;;;;;4591488;19;20002;-74
2024/01/01 02:12:22;;;;;;;38.05;28.42;;;14.60;99.90;;;;;;4590456;19;20025;-75
2024/01/01 02:14:17;;;;;;;36.70;27.95;;;14.60;99.90;;;;;;4590155;19;20006;-74
2024/01/01 02:15:52;;;;;;;34.42;27.15;;;14.60;99.90;;;;;;4591589;19;20006;-75
2024/01/01 02:17:27;;;;;;;38.83;29.15;;;14.60;99.90;;;;;;4591710;19;20012;-74
2024/01/01 02:19:01;;;;;;;37.42;28.25;;;14.60;99.90;;;;;;4591389;19;20429;-74
2024/01/01 02:20:36;;;;;;;37.42;29.77;;;14.60;99.90;;;;;;4591931;19;20006;-75
2024/01/01 02:22:09;;;;;;;39.83;29.58;;;14.50;99.90;;;;;;4591403;19;19998;-75
2024/01/01 02:23:44;;;;;;;38.90;30.23;;;14.50;99.90;;;;;;4591503;19;20323;-74
2024/01/01 02:25:19;;;;;;;40.75;29.17;;;14.50;99.90;;;;;;4591172;19;20078;-75
2024/01/01 02:26:53;;;;;;;42.47;30.77;;;14.50;99.90;;;;;;4590079;19;20306;-74
2024/01/01 02:28:27;;;;;;;39.42;30.42;;;14.50;99.90;;;;;;4591346;19;20007;-74
2024/01/01 02:30:02;;;;;;;39.70;30.67;;;14.50;99.90;;;;;;4591681;19;20005;-74
2024/01/01 02:31:36;;;;;;;38.67;29.67;;;14.50;99.90;;;;;;4591269;19;20078;-75
2024/01/01 02:33:10;;;;;;;39.83;30.05;;;14.40;99.90;;;;;;4591349;19;20006;-74
2024/01/01 02:34:48;;;;;;;41.83;31.35;;;14.50;99.90;;;;;;4591351;19;20023;-74
2024/01/01 02:36:24;;;;;;;39.05;29.05;;;14.50;99.90;;;;;;4590788;19;20009;-75
2024/01/01 02:37:59;;;;;;;39.92;29.13;;;14.50;99.90;;;;;;4591266;19;20006;-74
2024/01/01 02:39:34;;;;;;;40.53;29.95;;;14.40;99.90;;;;;;4591556;19;20007;-74
2024/01/01 02:41:08;;;;;;;43.08;32.00;;;14.40;99.90;;;;;;4591389;19;19998;-75
2024/01/01 02:42:42;;;;;;;42.30;32.35;;;14.40;99.90;;;;;;4590113;19;20031;-74
2024/01/01 02:44:18;;;;;;;40.42;30.55;;;14.40;99.90;;;;;;4589922;19;20017;-74
2024/01/01 02:45:53;;;;;;;42.50;31.00;;;14.40;99.90;;;;;;4590501;19;20433;-75
2024/01/01 02:47:27;;;;;;;43.00;30.63;;;14.40;99.90;;;;;;4591064;19;19999;-74
2024/01/01 02:49:03;;;;;;;41.33;31.67;;;14.40;99.90;;;;;;4591067;19;19999;-75
2024/01/01 02:50:37;;;;;;;42.70;31.05;;;14.40;99.90;;;;;;4591312;19;20347;-74
2024/01/01 02:52:12;;;;;;;42.28;31.33;;;14.40;99.90;;;;;;4591090;19;20003;-74
2024/01/01 02:53:47;;;;;;;43.60;30.90;;;14.40;99.90;;;;;;4594853;19;20325;-74
2024/01/01 02:55:21;;;;;;;41.45;30.50;;;14.40;99.90;;;;;;4595847;19;20004;-75
2024/01/01 02:56:55;;;;;;;41.63;30.48;;;14.40;99.90;;;;;;4594047;19;20014;-74
2024/01/01 02:58:30;;;;;;;44.63;30.75;;;14.30;99.90;;;;;;4595839;19;20010;-75
2024/01/01 03:00:05;;;;;;;43.30;31.98;;;14.30;99.90;;;;;;4595631;19;20002;-75
2024/01/01 03:01:43;;;;;;;45.58;32.80;;;14.40;99.90;;;;;;4594126;19;20019;-74
2024/01/01 03:03:19;;;;;;;42.80;31.73;;;14.40;99.90;;;;;;4595082;19;20073;-74
2024/01/01 03:04:54;;;;;;;41.70;30.17;;;14.30;99.90;;;;;;4595359;19;19999;-74
2024/01/01 03:06:28;;;;;;;39.55;30.00;;;14.30;99.90;;;;;;4594366;19;20007;-74
2024/01/01 03:08:04;;;;;;;40.35;30.33;;;14.30;99.90;;;;;;4595627;19;20007;-74
2024/01/01 03:09:38;;;;;;;44.88;32.03;;;14.30;99.90;;;;;;4595563;19;20022;-74
2024/01/01 03:11:11;;;;;;;45.55;32.15;;;14.30;99.90;;;;;;4595544;19;19999;-74
2024/01/01 03:12:47;;;;;;;40.55;31.45;;;14.30;99.90;;;;;;4595589;19;20006;-74
2024/01/01 03:14:21;;;;;;;44.53;32.78;;;14.30;99.90;;;;;;4595255;19;20010;-74
2024/01/01 03:15:55;;;;;;;47.97;33.72;;;14.30;99.90;;;;;;4594775;19;20006;-74
2024/01/01 03:17:30;;;;;;;41.05;31.13;;;14.30;99.90;;;;;;4595274;19;20099;-74
2024/01/01 03:19:05;;;;;;;40.55;31.88;;;14.30;99.90;;;;;;4594883;19;20013;-74
2024/01/01 03:20:39;;;;;;;50.10;34.05;;;14.30;99.90;;;;;;4594041;19;20003;-74
2024/01/01 03:22:14;;;;;;;43.53;32.90;;;14.30;99.90;;;;;;4593702;19;20010;-74
2024/01/01 03:23:48;;;;;;;42.65;31.60;;;14.30;99.90;;;;;;4594929;19;20002;-75
2024/01/01 03:25:22;;;;;;;42.65;32.42;;;14.30;99.90;;;;;;4594886;19;20003;-74
2024/01/01 03:26:58;;;;;;;44.58;32.92;;;14.30;99.90;;;;;;4593357;19;20018;-74
2024/01/01 03:28:33;;;;;;;48.60;33.65;;;14.30;99.90;;;;;;4593521;19;20062;-74
2024/01/01 03:30:08;;;;;;;44.72;32.63;;;14.30;99.90;;;;;;4594433;19;20323;-74
2024/01/01 03:31:47;;;;;;;43.75;32.08;;;14.20;99.90;;;;;;4594927;19;20002;-74
2024/01/01 03:33:21;;;;;;;43.97;32.08;;;14.20;99.90;;;;;;4594749;19;19999;-75
2024/01/01 03:34:55;;;;;;;45.10;32.63;;;14.20;99.90;;;;;;4593477;19;20402;-74
2024/01/01 03:36:30;;;;;;;45.25;32.00;;;14.20;99.90;;;;;;4593924;19;20033;-75
2024/01/01 03:38:05;;;;;;;46.42;32.47;;;14.20;99.90;;;;;;4594921;19;20425;-74
2024/01/01 03:39:39;;;;;;;40.72;30.80;;;14.20;99.90;;;;;;4594636;19;19998;-74
2024/01/01 03:41:14;;;;;;;45.92;33.47;;;14.20;99.90;;;;;;4594693;19;20382;-74
2024/01/01 03:42:49;;;;;;;46.95;33.53;;;14.20;99.90;;;;;;4594843;19;20331;-74
2024/01/01 03:44:23;;;;;;;45.75;33.20;;;14.20;99.90;;;;;;4594739;19;20007;-74
2024/01/01 03:45:59;;;;;;;45.63;32.20;;;14.20;99.90;;;;;;4593937;19;20425;-74
2024/01/01 03:47:35;;;;;;;45.57;33.30;;;14.20;99.90;;;;;;4594481;19;20311;-74
2024/01/01 03:49:10;;;;;;;45.25;33.00;;;14.20;99.90;;;;;;4594721;19;19999;-75
2024/01/01 03:50:46;;;;;;;45.70;33.85;;;14.20;99.90;;;;;;4594491;19;20074;-74
2024/01/01 03:52:21;;;;;;;53.53;37.40;;;14.20;99.90;;;;;;4594651;19;20002;-74
2024/01/01 03:53:56;;;;;;;83.63;51.50;;;14.20;99.90;;;;;;4594580;19;20007;-74
2024/01/01 03:55:32;;;;;;;98.43;59.53;;;14.20;99.90;;;;;;4594627;19;20003;-75
2024/01/01 03:57:06;;;;;;;80.00;50.03;;;14.20;99.90;;;;;;4593220;19;20010;-74
2024/01/01 03:58:41;;;;;;;80.05;50.47;;;14.20;99.90;;;;;;4594217;19;19998;-74
2024/01/01 04:00:16;;;;;;;67.50;47.88;;;14.20;99.90;;;;;;4594257;19;20010;-74
2024/01/01 04:01:51;;;;;;;71.30;50.33;;;14.20;99.90;;;;;;4594142;19;20006;-75
2024/01/01 04:03:25;;;;;;;68.80;47.42;;;14.20;99.90;;;;;;4594062;19;20006;-74
2024/01/01 04:05:01;;;;;;;71.05;48.92;;;14.20;99.90;;;;;;4593159;19;20017;-74
2024/01/01 04:06:35;;;;;;;56.97;38.78;;;14.20;99.90;;;;;;4592892;19;20014;-74
2024/01/01 04:08:09;;;;;;;56.58;38.78;;;14.20;99.90;;;;;;4594044;19;20003;-74
2024/01/01 04:09:45;;;;;;;52.85;38.35;;;14.20;99.90;;;;;;4594317;19;19995;-74
2024/01/01 04:11:20;;;;;;;52.23;36.20;;;14.20;99.90;;;;;;4593993;19;20341;-74
2024/01/01 04:12:56;;;;;;;51.97;35.95;;;14.10;99.90;;;;;;4594129;19;20082;-74
2024/01/01 04:14:32;;;;;;;50.55;36.45;;;14.20;99.90;;;;;;4594004;19;20310;-74
2024/01/01 04:16:08;;;;;;;54.45;39.53;;;14.20;99.90;;;;;;4593070;19;19998;-74
2024/01/01 04:17:42;;;;;;;57.92;41.22;;;14.20;99.90;;;;;;4592646;19;20010;-74
2024/01/01 04:19:17;;;;;;;59.53;42.33;;;14.20;99.90;;;;;;4593521;19;20014;-74
2024/01/01 04:20:53;;;;;;;62.97;45.07;;;14.20;99.90;;;;;;4593757;19;20023;-74
2024/01/01 04:22:27;;;;;;;62.63;44.47;;;14.10;99.90;;;;;;4594068;19;20297;-74
2024/01/01 04:24:02;;;;;;;58.03;42.10;;;14.10;99.90;;;;;;4593796;19;20016;-74
2024/01/01 04:25:37;;;;;;;52.83;39.10;;;14.10;99.90;;;;;;4593641;19;20006;-74
2024/01/01 04:27:11;;;;;;;57.05;43.08;;;14.10;99.90;;;;;;4592378;19;20007;-74
2024/01/01 04:28:46;;;;;;;56.97;41.97;;;14.10;99.90;;;;;;4592589;19;20424;-74
2024/01/01 04:30:20;;;;;;;54.97;40.65;;;14.10;99.90;;;;;;4593264;19;20018;-74
2024/01/01 04:31:54;;;;;;;54.63;41.00;;;14.10;99.90;;;;;;4593777;19;20024;-74
2024/01/01 04:33:29;;;;;;;58.60;40.83;;;14.10;99.90;;;;;;4592473;19;20021;-74
2024/01/01 04:35:03;;;;;;;62.00;44.63;;;14.10;99.90;;;;;;4593097;19;20380;-74
2024/01/01 04:36:38;;;;;;;64.25;46.47;;;14.10;99.90;;;;;;4591615;19;20011;-74
2024/01/01 04:38:14;;;;;;;64.17;46.27;;;14.10;99.90;;;;;;4593179;19;20018;-74
2024/01/01 04:39:48;;;;;;;64.80;48.20;;;14.10;99.90;;;;;;4593602;19;20397;-74
2024/01/01 04:41:22;;;;;;;64.28;47.33;;;14.10;99.90;;;;;;4593286;19;20213;-75
2024/01/01 04:42:59;;;;;;;57.78;44.90;;;14.10;99.90;;;;;;4593306;19;20019;-74
2024/01/01 04:44:33;;;;;;;59.00;44.33;;;14.10;99.90;;;;;;4593567;19;20018;-74
2024/01/01 04:46:10;;;;;;;57.47;42.27;;;14.10;99.90;;;;;;4592612;19;20002;-74
2024/01/01 04:47:46;;;;;;;60.08;42.50;;;14.10;99.90;;;;;;4591998;19;20010;-74
2024/01/01 04:49:21;;;;;;;58.67;41.00;;;14.10;99.90;;;;;;4592807;19;20345;-74
2024/01/01 04:50:55;;;;;;;57.30;43.83;;;14.10;99.90;;;;;;4591865;19;20002;-75
2024/01/01 04:52:30;;;;;;;57.83;42.37;;;14.10;99.90;;;;;;4592788;19;20091;-74
2024/01/01 04:54:04;;;;;;;57.08;42.75;;;14.10;99.90;;;;;;4593357;19;20099;-74
2024/01/01 04:55:38;;;;;;;58.03;43.43;;;14.10;99.90;;;;;;4593109;19;20367;-75
2024/01/01 04:57:14;;;;;;;56.17;43.42;;;14.10;99.90;;;;;;4591907;19;19999;-74
2024/01/01 04:58:48;;;;;;;55.75;44.03;;;14.10;99.90;;;;;;4593252;19;20017;-74
2024/01/01 05:00:22;;;;;;;59.13;43.85;;;14.10;99.90;;;;;;4592968;19;20039;-74
2024/01/01 05:01:58;;;;;;;58.58;45.03;;;14.10;99.90;;;;;;4593340;19;20303;-74
2024/01/01 05:03:32;;;;;;;58.50;42.20;;;14.10;99.90;;;;;;4593000;19;19999;-74
2024/01/01 05:05:08;;;;;;;56.33;41.53;;;14.00;99.90;;;;;;4592943;19;19999;-74
2024/01/01 05:06:43;;;;;;;55.03;41.50;;;14.10;99.90;;;;;;4591930;19;20086;-74
2024/01/01 05:08:17;;;;;;;52.03;40.67;;;14.10;99.90;;;;;;4592944;19;20002;-74
2024/01/01 05:09:52;;;;;;;52.07;40.50;;;14.10;99.90;;;;;;4592909;19;20014;-74
2024/01/01 05:11:29;;;;;;;52.08;38.47;;;14.10;99.90;;;;;;4592924;19;20062;-74
2024/01/01 05:13:03;;;;;;;50.43;36.77;;;14.10;99.90;;;;;;4592843;19;19998;-74
2024/01/01 05:14:42;;;;;;;52.08;38.72;;;14.10;99.90;;;;;;4592787;19;20429;-74
2024/01/01 05:16:19;;;;;;;52.63;38.20;;;14.10;99.90;;;;;;4590855;19;20032;-74
2024/01/01 05:17:53;;;;;;;50.10;38.40;;;14.10;99.90;;;;;;4592790;19;20006;-74
2024/01/01 05:19:27;;;;;;;49.00;37.13;;;14.10;99.90;;;;;;4591572;19;19998;-74
2024/01/01 05:21:02;;;;;;;51.30;37.20;;;14.10;99.90;;;;;;4592317;19;20070;-74
2024/01/01 05:22:37;;;;;;;49.08;35.97;;;14.10;99.90;;;;;;4592512;19;20025;-74
2024/01/01 05:24:11;;;;;;;46.40;34.33;;;14.00;99.90;;;;;;4592508;19;20017;-74
2024/01/01 05:25:47;;;;;;;46.75;34.83;;;14.00;99.90;;;;;;4592349;19;20017;-74
2024/01/01 05:27:22;;;;;;;51.77;37.50;;;14.00;99.90;;;;;;4591252;19;20022;-74
2024/01/01 05:28:56;;;;;;;47.57;35.77;;;14.00;99.90;;;;;;4592408;19;20430;-74
2024/01/01 05:30:32;;;;;;;52.67;36.55;;;14.00;99.90;;;;;;4592875;19;20069;-74
2024/01/01 05:32:06;;;;;;;47.95;34.97;;;14.10;99.90;;;;;;4592419;19;19999;-74
2024/01/01 05:33:40;;;;;;;51.20;37.10;;;14.00;99.90;;;;;;4592674;19;20086;-74
2024/01/01 05:35:16;;;;;;;48.30;35.80;;;14.00;99.90;;;;;;4591317;19;20006;-74
2024/01/01 05:36:51;;;;;;;47.00;35.60;;;14.00;99.90;;;;;;4591232;19;20101;-74
2024/01/01 05:38:26;;;;;;;51.13;36.07;;;14.00;99.90;;;;;;4592308;19;20066;-74
2024/01/01 05:40:02;;;;;;;45.13;34.07;;;14.00;99.90;;;;;;4592643;19;20456;-74
2024/01/01 05:41:37;;;;;;;48.25;33.90;;;14.00;99.90;;;;;;4592520;19;20042;-74
2024/01/01 05:43:12;;;;;;;48.33;34.73;;;14.00;99.90;;;;;;4590926;19;20025;-74
2024/01/01 05:44:47;;;;;;;51.70;35.42;;;14.00;99.90;;;;;;4591954;19;20006;-74
2024/01/01 05:46:21;;;;;;;50.75;36.17;;;14.00;99.90;;;;;;4591713;19;20006;-74
2024/01/01 05:47:55;;;;;;;51.00;36.10;;;14.00;99.90;;;;;;4592116;19;20003;-74
2024/01/01 05:49:31;;;;;;;55.03;39.40;;;14.00;99.90;;;;;;4592667;19;20037;-74
2024/01/01 05:51:06;;;;;;;50.40;37.40;;;14.00;99.90;;;;;;4592349;19;20003;-74
2024/01/01 05:52:40;;;;;;;52.58;37.28;;;14.00;99.90;;;;;;4592099;19;20069;-74
2024/01/01 05:54:15;;;;;;;53.30;38.00;;;14.00;99.90;;;;;;4592297;19;20313;-74
2024/01/01 05:55:49;;;;;;;57.47;39.47;;;14.00;99.90;;;;;;4591843;19;20017;-74
2024/01/01 05:57:24;;;;;;;53.83;37.93;;;14.00;99.90;;;;;;4592249;19;20370;-74
2024/01/01 05:58:59;;;;;;;46.83;36.10;;;14.00;99.90;;;;;;4592020;19;20303;-74
2024/01/01 06:00:36;;;;;;;49.78;36.25;;;14.00;99.90;;;;;;4591905;19;20346;-74
2024/01/01 06:02:10;;;;;;;51.27;35.77;;;14.00;99.90;;;;;;4592286;19;20006;-74
2024/01/01 06:03:46;;;;;;;47.08;35.15;;;14.00;99.90;;;;;;4591897;19;20073;-74
2024/01/01 06:05:20;;;;;;;48.47;35.42;;;14.00;99.90;;;;;;4591884;19;20003;-74
2024/01/01 06:06:54;;;;;;;48.25;35.75;;;14.00;99.90;;;;;;4589198;19;20021;-74
2024/01/01 06:08:30;;;;;;;46.90;35.67;;;14.00;99.90;;;;;;4591958;19;20013;-74
2024/01/01 06:10:04;;;;;;;51.63;35.70;;;14.00;99.90;;;;;;4591988;19;20003;-74
2024/01/01 06:11:38;;;;;;;50.87;36.93;;;14.00;99.90;;;;;;4592064;19;19998;-74
2024/01/01 06:13:14;;;;;;;48.65;37.17;;;14.00;99.90;;;;;;4592178;19;20006;-74
2024/01/01 06:14:48;;;;;;;51.05;36.70;;;14.00;99.90;;;;;;4591984;19;20062;-74
2024/01/01 06:16:25;;;;;;;50.67;35.95;;;14.00;99.90;;;;;;4590799;19;20026;-74
2024/01/01 06:18:00;;;;;;;49.07;35.83;;;14.00;99.90;;;;;;4591973;19;20014;-74
2024/01/01 06:19:34;;;;;;;47.50;36.40;;;14.00;99.90;;;;;;4591837;19;20003;-74
2024/01/01 06:21:08;;;;;;;46.57;34.03;;;14.00;99.90;;;;;;4591612;19;20025;-74
2024/01/01 06:22:43;;;;;;;48.30;35.35;;;14.00;99.90;;;;;;4591612;19;20003;-74
2024/01/01 06:24:17;;;;;;;50.33;37.33;;;14.00;99.90;;;;;;4591603;19;19998;-74
2024/01/01 06:25:54;;;;;;;51.65;35.88;;;14.00;99.90;;;;;;4591433;19;19999;-74
2024/01/01 06:27:29;;;;;;;48.23;35.60;;;14.00;99.90;;;;;;4591580;19;20013;-74
2024/01/01 06:29:04;;;;;;;45.80;33.75;;;14.00;99.90;;;;;;4595519;19;20013;-74
2024/01/01 06:30:38;;;;;;;48.10;34.47;;;14.00;99.90;;;;;;4595095;19;20003;-74
2024/01/01 06:32:14;;;;;;;47.08;34.60;;;14.00;99.90;;;;;;4596241;19;20006;-74
2024/01/01 06:33:48;;;;;;;51.67;37.20;;;14.00;99.90;;;;;;4596108;19;20097;-74
2024/01/01 06:35:22;;;;;;;43.40;33.95;;;14.00;99.90;;;;;;4596005;19;20007;-74
2024/01/01 06:36:57;;;;;;;45.08;33.42;;;14.00;99.90;;;;;;4595060;19;20009;-74
2024/01/01 06:38:31;;;;;;;48.83;35.95;;;14.00;99.90;;;;;;4595932;19;20002;-74
2024/01/01 06:40:07;;;;;;;49.60;33.70;;;14.00;99.90;;;;;;4596191;19;20512;-74
2024/01/01 06:41:43;;;;;;;51.50;36.33;;;14.00;99.90;;;;;;4596022;19;19998;-74
2024/01/01 06:43:18;;;;;;;51.17;39.70;;;14.00;99.90;;;;;;4595864;19;20002;-74
2024/01/01 06:44:52;;;;;;;59.23;49.50;;;13.90;99.90;;;;;;4595836;19;20006;-74
2024/01/01 06:46:27;;;;;;;53.65;43.20;;;13.90;99.90;;;;;;4595128;19;20017;-74
2024/01/01 06:48:02;;;;;;;49.80;37.38;;;13.90;99.90;;;;;;4595811;19;20149;-74
2024/01/01 06:49:36;;;;;;;47.17;35.60;;;13.90;99.90;;;;;;4595772;19;20291;-74
2024/01/01 06:51:12;;;;;;;48.20;35.00;;;14.00;99.90;;;;;;4596046;19;20006;-74
2024/01/01 06:52:46;;;;;;;49.37;37.33;;;14.00;99.90;;;;;;4595728;19;20002;-74
2024/01/01 06:54:21;;;;;;;51.20;38.45;;;13.90;99.90;;;;;;4594602;19;20010;-74
2024/01/01 06:55:56;;;;;;;49.97;38.57;;;13.90;99.90;;;;;;4595153;19;20017;-74
2024/01/01 06:57:31;;;;;;;49.95;37.75;;;13.90;99.90;;;;;;4595851;19;20417;-74
2024/01/01 06:59:05;;;;;;;48.30;37.50;;;13.90;99.90;;;;;;4595854;19;20002;-74
2024/01/01 07:00:43;;;;;;;49.03;38.30;;;13.90;99.90;;;;;;4595853;19;20084;-74
2024/01/01 07:02:17;;;;;;;49.13;35.40;;;13.90;99.90;;;;;;4595627;19;20318;-74
2024/01/01 07:03:52;;;;;;;48.92;36.80;;;13.90;99.90;;;;;;4594110;19;20006;-74
2024/01/01 07:05:29;;;;;;;47.10;36.17;;;13.90;99.90;;;;;;4595452;19;20024;-74
2024/01/01 07:07:03;;;;;;;54.93;38.20;;;13.90;99.90;;;;;;4594130;19;20010;-74
2024/01/01 07:08:37;;;;;;;50.67;38.23;;;13.90;99.90;;;;;;4595643;19;20010;-74
2024/01/01 07:10:13;;;;;;;51.10;39.00;;;13.90;99.90;;;;;;4595531;19;20003;-74
2024/01/01 07:11:47;;;;;;;50.65;38.42;;;13.90;99.90;;;;;;4595390;19;19995;-74
2024/01/01 07:13:21;;;;;;;52.83;38.93;;;13.90;99.90;;;;;;4595522;19;20006;-74
2024/01/01 07:14:58;;;;;;;47.57;37.77;;;13.90;99.90;;;;;;4595306;19;20007;-74
2024/01/01 07:16:32;;;;;;;49.97;36.90;;;13.90;99.90;;;;;;4594297;19;20014;-77
2024/01/01 07:18:07;;;;;;;47.78;36.92;;;14.00;99.90;;;;;;4595241;19;20022;-74
2024/01/01 07:19:42;;;;;;;47.30;35.60;;;14.10;99.90;;;;;;4595175;19;20081;-74
2024/01/01 07:21:17;;;;;;;49.25;37.97;;;14.20;99.90;;;;;;4595093;19;20003;-73
2024/01/01 07:22:51;;;;;;;47.83;36.07;;;14.20;99.90;;;;;;4594874;19;20016;-77
2024/01/01 07:24:26;;;;;;;52.42;38.08;;;14.30;99.90;;;;;;4595545;19;20093;-78
2024/01/01 07:26:02;;;;;;;50.83;37.10;;;14.30;99.90;;;;;;4593531;19;20014;-79
2024/01/01 07:27:36;;;;;;;46.95;36.25;;;14.40;99.90;;;;;;4595121;19;20034;-75
2024/01/01 07:29:12;;;;;;;49.17;37.80;;;14.40;99.90;;;;;;4595278;19;20105;-78
2024/01/01 07:30:46;;;;;;;47.45;38.60;;;14.50;99.90;;;;;;4595087;19;20003;-77
2024/01/01 07:32:20;;;;;;;50.78;37.65;;;14.50;99.90;;;;;;4595104;19;20021;-76
2024/01/01 07:33:58;;;;;;;48.13;35.13;;;14.60;99.90;;;;;;4593531;19;20077;-80
2024/01/01 07:35:32;;;;;;;49.47;38.33;;;14.60;99.90;;;;;;4594558;19;20066;-84
2024/01/01 07:37:07;;;;;;;52.97;39.50;;;14.60;99.90;;;;;;4592307;19;20002;-81
2024/01/01 07:38:43;;;;;;;53.67;38.38;;;14.70;99.90;;;;;;4594222;19;20305;-81
2024/01/01 07:40:17;;;;;;;50.67;38.30;;;14.70;99.90;;;;;;4594694;19;20011;-84
2024/01/01 07:41:51;;;;;;;47.85;37.00;;;14.70;99.90;;;;;;4595054;19;19999;-83
2024/01/01 07:43:26;;;;;;;49.03;39.20;;;14.70;99.90;;;;;;4595358;19;20002;-84
2024/01/01 07:45:01;;;;;;;50.65;38.70;;;14.70;99.90;;;;;;4595107;19;20324;-84
2024/01/01 07:46:35;;;;;;;50.00;40.17;;;14.70;99.90;;;;;;4592475;19;20027;-87
2024/01/01 07:48:10;;;;;;;49.88;39.42;;;14.70;99.90;;;;;;4594320;19;20388;-89
2024/01/01 07:49:44;;;;;;;51.65;38.53;;;14.60;99.90;;;;;;4595476;19;19999;-89
2024/01/01 07:51:18;;;;;;;50.72;38.38;;;14.70;99.90;;;;;;4595764;19;20003;-89
2024/01/01 07:52:55;;;;;;;51.30;38.20;;;14.70;99.90;;;;;;4593387;19;20003;-88
2024/01/01 07:54:30;;;;;;;49.20;37.47;;;14.70;99.90;;;;;;4593345;19;20074;-88
2024/01/01 07:56:06;;;;;;;45.92;36.38;;;14.60;99.90;;;;;;4593153;19;20370;-87
2024/01/01 07:57:41;;;;;;;49.10;38.13;;;14.60;99.90;;;;;;4594119;19;20011;-78
2024/01/01 07:59:16;;;;;;;48.63;37.50;;;14.60;99.90;;;;;;4594284;19;20003;-76
2024/01/01 08:00:50;;;;;;;52.58;38.35;;;14.60;99.90;;;;;;4594351;19;19998;-77
2024/01/01 08:02:27;;;;;;;57.60;38.58;;;14.60;99.90;;;;;;4594617;19;20006;-77
2024/01/01 08:04:01;;;;;;;57.05;38.75;;;14.60;99.90;;;;;;4594233;19;20006;-81
2024/01/01 08:05:36;;;;;;;61.08;41.70;;;14.50;99.90;;;;;;4592863;19;20437;-78
2024/01/01 08:07:13;;;;;;;63.53;44.63;;;14.50;99.90;;;;;;4592468;19;20002;-80
2024/01/01 08:08:48;;;;;;;133.07;98.25;;;14.50;99.90;;;;;;4594343;19;20017;-78
2024/01/01 08:10:22;;;;;;;161.20;125.40;;;14.50;99.90;;;;;;4593870;19;20334;-76
2024/01/01 08:11:57;;;;;;;130.13;97.88;;;14.50;99.90;;;;;;4594701;19;20029;-77
2024/01/01 08:13:31;;;;;;;104.72;76.18;;;14.60;99.90;;;;;;4594163;19;20003;-75
2024/01/01 08:15:05;;;;;;;90.40;62.22;;;14.60;99.90;;;;;;4593971;19;20006;-74
2024/01/01 08:16:41;;;;;;;74.40;52.85;;;14.70;99.90;;;;;;4593102;19;20045;-78